Aeroporto :
LOGIN :

Iscrizione | Disclaimer

   EN    FR    IT 

 










Sommario :    VFR   VFR Marginale   IFR   IFR Intensivo   IFR Molto Intensivo
Visibilità : 
Base nubi : 
>= 8 km
>= 3000ft
5 / 8 km
1000 / 3000 ft
1500m / 5 km
500 / 1000 ft
800 / 1500m
200 / 500 ft
< 800m
< 200 ft
Simboli :   Temporali  Nebbia  Neve Forte  Precipitazioni Forti  Vento > 20 kt
SIGMETs :   Varie  Temporali  Ghiacco  Turbolenza  Onda orograficha  Ceneri Vulcaniche







- Altitudine del aeroporto : 1947 ft
- Codice IATA : OBF


EDMO - Oberpfaffenhofen

ULTIMO METAR :
  • 241420Z AUTO 28007KT 240V330 9999 // NCD 17/03 Q1020

METARs OBSOLETI :
  • 241350Z 29006KT 240V340 CAVOK 17/01 Q1020
  • 241320Z 22004KT 130V270 CAVOK 17/01 Q1020
  • 241250Z AUTO VRB03KT 9999 // NCD 17/02 Q1020
  • 241220Z AUTO 01005KT 280V070 9999 // NCD 17/03 Q1021
  • 241150Z AUTO VRB02KT 9999 // NCD 17/03 Q1021

Previsioni scadute.
Nessun NOTAM noto per questo aeroporto.



MetMap, La meteo Aeronautica in un colpo d'occhio ! - Copyright ORBIFLY Dicembre 2007 - Disclaimer

ORBIFLY MET'MAP TEAM :

Programmazione e sviluppo : Alexandra Zaïnal
Concezione e sviluppo : Baudouin d'Aumeries
Co-Programmazione e sviluppo : Marc-Olivier Méhu
Supporto tecnico e logistico : Manuel Goepfert
Aiuto per la traduzione : Arnaldo La Scala

Contatto : metmap@orbifly.com




FONTI E CREDITI :

   NOAA